createdAt,value
2017-08-09T00:01:56.007Z,82.5
2017-08-09T00:12:10.811Z,81.8
2017-08-09T00:22:25.668Z,81.9
2017-08-09T00:32:39.789Z,81.8
2017-08-09T00:42:54.267Z,81
2017-08-09T00:53:09.717Z,81.1
2017-08-09T01:03:24.241Z,81.4
2017-08-09T01:13:38.090Z,80.9
2017-08-09T01:23:53.256Z,80.9
2017-08-09T01:34:07.091Z,81.2
2017-08-09T01:44:22.286Z,82
2017-08-09T01:54:37.791Z,81
2017-08-09T02:04:52.669Z,81
2017-08-09T02:15:06.421Z,81
2017-08-09T02:25:21.798Z,81.4
2017-08-09T02:35:36.690Z,81
2017-08-09T02:45:52.094Z,80.2
2017-08-09T02:56:06.404Z,79.5
2017-08-09T03:06:21.010Z,78.6
2017-08-09T03:16:34.900Z,78.2
2017-08-09T03:26:49.389Z,77.5
2017-08-09T03:37:04.981Z,76.2
2017-08-09T03:47:18.776Z,76
2017-08-09T03:57:33.726Z,75.1
2017-08-09T04:07:48.538Z,75.1
2017-08-09T04:18:03.799Z,75
2017-08-09T04:28:18.642Z,74.8
2017-08-09T04:38:33.308Z,75.1
2017-08-09T04:48:48.267Z,74.4
2017-08-09T04:59:02.257Z,74.4
2017-08-09T05:09:16.874Z,75
2017-08-09T05:19:31.419Z,76.5
2017-08-09T05:29:46.134Z,77.4
2017-08-09T05:40:00.922Z,76.9
2017-08-09T05:50:16.398Z,75.5
2017-08-09T06:00:30.520Z,74.2
2017-08-09T06:10:44.465Z,73.4
2017-08-09T06:20:59.881Z,74.1
2017-08-09T06:31:14.497Z,75.9
2017-08-09T06:41:28.418Z,78.4
2017-08-09T06:51:43.688Z,78.1
2017-08-09T07:01:58.752Z,77.5
2017-08-09T07:12:13.903Z,76.5
2017-08-09T07:22:28.288Z,77.7
2017-08-09T07:32:42.130Z,80.4
2017-08-09T07:42:57.343Z,84
2017-08-09T07:53:11.436Z,86.8
2017-08-09T08:03:26.077Z,89
2017-08-09T08:13:40.454Z,90.4
2017-08-09T08:23:54.705Z,93.3
2017-08-09T08:34:09.022Z,94.9
2017-08-09T08:44:22.880Z,96.5
2017-08-09T08:54:37.628Z,97.4
2017-08-09T09:04:51.804Z,98.3
2017-08-09T09:15:06.699Z,98.3
2017-08-09T09:25:21.674Z,97.8
2017-08-09T09:35:36.653Z,97
2017-08-09T09:45:52.248Z,96.5
2017-08-09T09:56:06.567Z,95.5
2017-08-09T10:06:20.464Z,95.8
2017-08-09T10:16:35.325Z,95
2017-08-09T10:26:50.984Z,94.5
2017-08-09T10:37:05.880Z,91.8
2017-08-09T10:47:19.868Z,91.3
2017-08-09T10:57:34.352Z,90.2
2017-08-09T11:07:48.558Z,91.2
2017-08-09T11:18:04.286Z,90.8
2017-08-09T11:28:19.680Z,89.8
2017-08-09T11:38:34.102Z,90.4
2017-08-09T11:48:48.512Z,89.2
2017-08-09T11:59:02.727Z,88.6
2017-08-09T12:09:18.552Z,87.7
2017-08-09T12:19:33.889Z,86.7
2017-08-09T12:29:48.267Z,84.8
2017-08-09T12:40:03.790Z,84.4
2017-08-09T12:50:19.028Z,82
2017-08-09T13:00:34.077Z,83.8
2017-08-09T13:10:49.429Z,81.8
2017-08-09T13:21:04.681Z,81.3
2017-08-09T13:31:18.869Z,81.6
2017-08-09T13:41:33.455Z,80.5
2017-08-09T13:51:47.459Z,79.9
2017-08-09T14:02:03.241Z,81.4
2017-08-09T14:12:18.687Z,80.3
2017-08-09T14:22:32.750Z,82.1
2017-08-09T14:32:48.120Z,78.8
2017-08-09T14:43:02.454Z,76.7
2017-08-09T14:53:18.278Z,77.8
2017-08-09T15:03:33.532Z,76.7
2017-08-09T15:13:48.251Z,75.8
2017-08-09T15:24:03.758Z,76.1
2017-08-09T15:34:19.186Z,76.1
2017-08-09T15:44:34.749Z,76.1
2017-08-09T15:54:50.399Z,75.4
2017-08-09T16:05:05.818Z,76
2017-08-09T16:15:20.687Z,76.1
2017-08-09T16:25:35.513Z,78.4
2017-08-09T16:35:49.455Z,76.8
2017-08-09T16:46:04.242Z,75.5
2017-08-09T16:56:19.801Z,75.5
2017-08-09T17:06:35.217Z,73.4
2017-08-09T17:16:49.593Z,72.2
2017-08-09T17:27:04.870Z,74.2
2017-08-09T17:37:19.784Z,78.6
2017-08-09T17:47:35.199Z,79.2
2017-08-09T17:57:49.519Z,83.3
2017-08-09T18:08:03.381Z,86.2
2017-08-09T18:18:17.741Z,88.3
2017-08-09T18:28:31.635Z,89.4
2017-08-09T18:38:47.400Z,89.8
2017-08-09T18:49:01.180Z,91.5
2017-08-09T18:59:15.927Z,92.1
2017-08-09T19:09:30.781Z,93.4
2017-08-09T19:19:45.487Z,93.9
2017-08-09T19:30:01.215Z,95.2
2017-08-09T19:40:16.984Z,95.7
2017-08-09T19:50:31.680Z,97
2017-08-09T20:00:46.210Z,95.5
2017-08-09T20:10:59.855Z,95.7
2017-08-09T20:21:13.913Z,95.5
2017-08-09T20:31:28.458Z,92.3
2017-08-09T20:41:43.324Z,87.6
2017-08-09T20:51:57.357Z,81.5
2017-08-09T21:02:12.820Z,77.9
2017-08-09T21:12:27.572Z,74.9
2017-08-09T21:22:41.726Z,75
2017-08-09T21:32:56.635Z,72.7
2017-08-09T21:43:11.993Z,71.4
2017-08-09T21:53:25.930Z,68.3
2017-08-09T22:03:40.932Z,67.4
2017-08-09T22:13:55.145Z,65.1
2017-08-09T22:24:09.823Z,62.3
2017-08-09T22:34:24.590Z,61.9
2017-08-09T22:44:38.518Z,62
2017-08-09T22:54:52.773Z,62.3
2017-08-09T23:05:07.818Z,62
2017-08-09T23:15:23.026Z,61.9
2017-08-09T23:25:37.549Z,61.8
2017-08-09T23:35:52.228Z,61.6
2017-08-09T23:46:06.957Z,61.8
2017-08-09T23:56:20.726Z,61.6
